createdAt,value
2018-11-20T01:33:28.634Z,6.60
2018-11-20T01:42:24.385Z,7.30
2018-11-20T01:52:11.307Z,7.10
2018-11-20T01:54:47.744Z,7.70
2018-11-20T01:57:35.463Z,6.87
2018-11-20T02:00:21.109Z,7.80
2018-11-20T02:03:08.621Z,7.45
2018-11-20T02:05:59.417Z,8.13
2018-11-20T02:08:50.267Z,6.78
2018-11-20T02:11:44.598Z,6.83
2018-11-20T02:14:33.588Z,6.78
2018-11-20T02:17:23.075Z,6.72
2018-11-20T02:20:09.818Z,6.67
2018-11-20T02:22:56.672Z,6.75
2018-11-20T02:25:50.589Z,6.35
2018-11-20T02:28:38.658Z,7.00
2018-11-20T02:31:14.560Z,6.12
2018-11-20T02:34:08.286Z,7.75
2018-11-20T02:36:54.739Z,6.30
2018-11-20T02:39:41.597Z,6.55
2018-11-20T02:42:35.418Z,6.78
2018-11-20T02:45:22.155Z,6.72
2018-11-20T02:48:08.961Z,7.03
2018-11-20T02:50:55.574Z,6.53
2018-11-20T02:53:58.395Z,5.95
2018-11-20T02:57:01.472Z,6.20
2018-11-20T02:59:58.691Z,7.35
2018-11-20T03:02:40.746Z,8.80
2018-11-20T03:05:27.500Z,7.72
2018-11-20T03:08:12.159Z,6.17
2018-11-20T03:10:48.494Z,7.15
2018-11-20T03:13:34.971Z,6.75
2018-11-20T03:16:38.140Z,7.28
2018-11-20T03:19:35.461Z,8.98
2018-11-20T03:22:15.225Z,7.25
2018-11-20T03:24:54.476Z,7.45
2018-11-20T03:27:36.987Z,7.42
2018-11-20T03:30:54.440Z,7.03
2018-11-20T03:33:31.880Z,7.12
2018-11-20T03:36:18.782Z,7.55
2018-11-20T03:39:15.683Z,7.20
2018-11-20T03:42:01.411Z,8.45
2018-11-20T03:44:49.554Z,9.30
2018-11-20T03:47:54.197Z,8.10
2018-11-20T03:50:42.241Z,7.80
2018-11-20T03:53:29.182Z,7.65
2018-11-20T03:56:15.752Z,7.92
2018-11-20T03:59:02.290Z,7.05
2018-11-20T04:01:59.506Z,7.90
2018-11-20T04:04:44.472Z,7.33
2018-11-20T04:07:32.617Z,6.80
2018-11-20T04:10:19.198Z,7.67
2018-11-20T04:13:10.305Z,8.75
2018-11-20T04:15:59.986Z,7.80
2018-11-20T04:18:46.553Z,7.70
2018-11-20T04:21:34.705Z,8.65
2018-11-20T04:24:23.288Z,7.90
2018-11-20T04:27:08.630Z,7.75
2018-11-20T04:29:46.964Z,8.28
2018-11-20T04:32:27.730Z,7.75
2018-11-20T04:35:17.550Z,7.33
2018-11-20T04:38:20.886Z,8.05
2018-11-20T04:41:20.802Z,6.97
2018-11-20T04:44:08.274Z,8.43
2018-11-20T04:46:53.650Z,7.70
2018-11-20T04:49:29.320Z,8.00
2018-11-20T04:52:17.634Z,8.18
2018-11-20T04:55:04.257Z,9.23
2018-11-20T04:57:57.537Z,8.00
2018-11-20T05:01:00.538Z,7.90
2018-11-20T05:03:37.209Z,6.75
2018-11-20T05:06:12.810Z,7.47
2018-11-20T05:08:52.422Z,7.50
2018-11-20T05:11:30.158Z,8.08
2018-11-20T05:14:13.145Z,7.60
2018-11-20T05:16:59.544Z,8.03
2018-11-20T05:19:50.320Z,9.08
2018-11-20T05:22:36.516Z,7.83
2018-11-20T05:25:33.758Z,7.75
2018-11-20T05:28:20.638Z,7.55
2018-11-20T05:31:07.704Z,7.62
2018-11-20T05:34:01.673Z,7.15
2018-11-20T05:36:41.698Z,8.33
2018-11-20T05:39:35.336Z,7.83
2018-11-20T05:42:20.816Z,8.35
2018-11-20T05:45:13.302Z,8.50
2018-11-20T05:47:55.220Z,7.92
2018-11-20T05:50:44.214Z,7.92
2018-11-20T05:53:30.701Z,8.28
2018-11-20T05:56:07.940Z,8.68
2018-11-20T05:58:54.700Z,7.40
2018-11-20T06:01:37.283Z,8.85
2018-11-20T06:04:14.038Z,7.87
2018-11-20T06:07:11.170Z,7.97
2018-11-20T06:09:57.716Z,8.83
2018-11-20T06:12:44.212Z,8.10
2018-11-20T06:15:41.360Z,8.63
2018-11-20T06:18:29.518Z,9.83
2018-11-20T06:21:20.442Z,9.63
2018-11-20T06:24:09.936Z,9.70
2018-11-20T06:27:08.958Z,8.38
2018-11-20T06:29:54.396Z,6.92
2018-11-20T06:32:43.934Z,7.65
2018-11-20T06:35:25.342Z,7.12
2018-11-20T06:38:12.084Z,8.48
2018-11-20T06:41:03.380Z,9.00
2018-11-20T06:44:03.360Z,7.67
2018-11-20T06:46:43.000Z,7.42
2018-11-20T06:49:29.784Z,8.53
2018-11-20T06:52:22.926Z,8.38
2018-11-20T06:55:16.339Z,8.53
2018-11-20T06:58:03.144Z,8.98
2018-11-20T07:00:57.303Z,8.00
2018-11-20T07:04:03.395Z,7.83
2018-11-20T07:06:50.106Z,8.63
2018-11-20T07:09:48.402Z,8.13
2018-11-20T07:12:30.619Z,9.90
2018-11-20T07:15:19.947Z,8.45
2018-11-20T07:18:00.924Z,8.35
2018-11-20T07:20:50.790Z,9.38
2018-11-20T07:23:42.218Z,8.33
2018-11-20T07:26:40.468Z,8.90
2018-11-20T07:29:34.393Z,9.00
2018-11-20T07:33:08.960Z,9.40
2018-11-20T07:36:08.538Z,8.78
2018-11-20T07:39:08.393Z,7.92
2018-11-20T07:42:08.024Z,9.55
2018-11-20T07:45:10.824Z,10.48
2018-11-20T07:48:10.288Z,8.58
2018-11-20T07:51:13.116Z,9.35
2018-11-20T07:54:13.238Z,9.48
2018-11-20T07:57:13.365Z,8.83
2018-11-20T08:00:16.498Z,8.90
2018-11-20T08:03:16.314Z,9.83
2018-11-20T08:06:16.293Z,9.08
2018-11-20T08:09:16.275Z,8.93
2018-11-20T08:12:15.739Z,8.13
2018-11-20T08:15:15.527Z,7.53
2018-11-20T08:18:15.629Z,8.85
2018-11-20T08:21:15.766Z,9.60
2018-11-20T08:24:16.047Z,9.58
2018-11-20T08:27:13.588Z,8.58
2018-11-20T08:30:11.485Z,8.78
2018-11-20T08:33:11.605Z,8.40
2018-11-20T08:36:09.473Z,8.65
2018-11-20T08:39:16.291Z,9.70
2018-11-20T08:42:16.103Z,8.33
2018-11-20T08:45:15.608Z,9.18
2018-11-20T08:48:22.434Z,8.50
2018-11-20T08:51:18.427Z,8.50
2018-11-20T08:54:08.806Z,9.88
2018-11-20T08:57:08.227Z,8.70
2018-11-20T08:59:58.885Z,8.70
2018-11-20T09:03:01.751Z,8.95
2018-11-20T09:06:01.910Z,9.25
2018-11-20T09:09:01.517Z,10.13
2018-11-20T09:11:53.178Z,10.05
2018-11-20T09:14:52.532Z,7.22
2018-11-20T09:17:55.478Z,10.40
2018-11-20T09:20:53.673Z,8.68
2018-11-20T09:24:00.451Z,9.43
2018-11-20T09:26:59.866Z,8.28
2018-11-20T09:30:02.302Z,10.28
2018-11-20T09:32:54.228Z,9.38
2018-11-20T09:35:59.842Z,8.55
2018-11-20T09:38:59.639Z,9.15
2018-11-20T09:41:59.765Z,10.58
2018-11-20T09:44:59.953Z,9.48
2018-11-20T09:47:59.648Z,10.00
2018-11-20T09:50:59.777Z,9.23
2018-11-20T09:53:59.823Z,9.03
2018-11-20T09:56:59.877Z,10.58
2018-11-20T10:00:05.314Z,9.53
2018-11-20T10:02:58.690Z,9.35
2018-11-20T10:05:58.709Z,9.50
2018-11-20T10:08:58.906Z,11.18
2018-11-20T10:11:59.239Z,10.08
2018-11-20T10:14:48.267Z,10.03
2018-11-20T10:17:47.603Z,10.40
2018-11-20T10:20:43.153Z,10.20
2018-11-20T10:23:42.999Z,10.55
2018-11-20T10:26:43.193Z,10.45
2018-11-20T10:29:43.380Z,9.70
2018-11-20T10:32:43.637Z,9.60
2018-11-20T10:35:37.826Z,9.15
2018-11-20T10:38:37.543Z,11.10
2018-11-20T10:41:37.365Z,11.28
2018-11-20T10:44:37.143Z,13.08
2018-11-20T10:47:37.283Z,11.15
2018-11-20T10:50:36.791Z,12.68
2018-11-20T10:53:36.763Z,12.47
2018-11-20T10:59:46.691Z,10.23
2018-11-20T11:02:46.713Z,11.75
2018-11-20T11:05:46.910Z,11.68
2018-11-20T11:08:47.134Z,11.97
2018-11-20T11:11:35.716Z,11.22
2018-11-20T11:14:37.050Z,12.13
2018-11-20T11:17:36.830Z,12.50
2018-11-20T11:20:37.056Z,12.18
2018-11-20T11:23:37.108Z,12.15
2018-11-20T11:26:37.290Z,11.78
2018-11-20T11:29:37.268Z,12.47
2018-11-20T11:32:36.726Z,11.60
2018-11-20T11:35:36.292Z,13.85
2018-11-20T11:38:43.102Z,13.43
2018-11-20T11:41:36.598Z,12.88
2018-11-20T11:44:36.254Z,10.58
2018-11-20T11:47:27.002Z,12.35
2018-11-20T11:50:26.408Z,12.82
2018-11-20T11:53:26.265Z,12.10
2018-11-20T11:56:25.714Z,13.68
2018-11-20T11:59:25.953Z,13.32
2018-11-20T12:05:15.294Z,12.73
2018-11-20T12:08:15.596Z,13.38
2018-11-20T12:11:15.445Z,12.85
2018-11-20T12:14:14.840Z,13.62
2018-11-20T12:17:14.835Z,12.55
2018-11-20T12:20:15.128Z,12.70
2018-11-20T12:23:08.926Z,13.18
2018-11-20T12:26:02.813Z,12.80
2018-11-20T12:28:55.876Z,11.60
2018-11-20T12:31:41.337Z,14.13
2018-11-20T12:34:31.609Z,13.53
2018-11-20T12:37:07.651Z,13.75
2018-11-20T12:39:47.102Z,12.05
2018-11-20T12:42:38.681Z,12.43
2018-11-20T12:45:23.952Z,13.10
2018-11-20T12:48:14.126Z,12.43
2018-11-20T12:50:55.725Z,11.70
2018-11-20T12:53:48.701Z,12.13
2018-11-20T12:56:25.956Z,13.45
2018-11-20T12:59:11.749Z,12.40
2018-11-20T13:01:57.346Z,14.58
2018-11-20T13:04:45.699Z,13.28
2018-11-20T13:07:24.082Z,12.53
2018-11-20T13:10:10.032Z,13.08
2018-11-20T13:13:00.615Z,12.45
2018-11-20T13:15:53.429Z,13.25
2018-11-20T13:18:30.507Z,12.82
2018-11-20T13:21:06.251Z,11.48
2018-11-20T13:23:51.832Z,12.30
2018-11-20T13:26:42.855Z,12.85
2018-11-20T13:29:36.033Z,11.33
2018-11-20T13:32:15.632Z,12.40
2018-11-20T13:35:01.317Z,11.90
2018-11-20T13:37:51.944Z,13.10
2018-11-20T13:41:19.415Z,13.08
2018-11-20T13:44:05.314Z,13.38
2018-11-20T13:46:55.523Z,12.37
2018-11-20T13:49:48.822Z,12.78
2018-11-20T13:52:29.577Z,11.95
2018-11-20T13:55:27.332Z,12.18
2018-11-20T13:58:12.663Z,12.85
2018-11-20T14:01:05.704Z,14.05
2018-11-20T14:03:58.962Z,13.45
2018-11-20T14:06:37.222Z,14.40
2018-11-20T14:09:42.155Z,13.10
2018-11-20T14:12:21.659Z,13.45
2018-11-20T14:14:59.670Z,13.20
2018-11-20T14:17:45.557Z,13.53
2018-11-20T14:20:32.174Z,13.15
2018-11-20T14:23:14.132Z,11.68
2018-11-20T14:26:10.389Z,12.85
2018-11-20T14:28:56.152Z,12.75
2018-11-20T14:31:36.110Z,14.85
2018-11-20T14:34:22.463Z,14.13
2018-11-20T14:37:07.548Z,12.53
2018-11-20T14:39:58.313Z,13.10
2018-11-20T14:42:51.509Z,14.05
2018-11-20T14:45:28.591Z,10.53
2018-11-20T14:48:17.855Z,15.98
2018-11-20T14:51:03.552Z,11.22
2018-11-20T14:53:39.050Z,13.35
2018-11-20T14:56:14.677Z,12.75
2018-11-20T14:59:00.916Z,10.70
2018-11-20T15:01:46.794Z,13.00
2018-11-20T15:04:27.067Z,12.35
2018-11-20T15:07:14.144Z,12.58
2018-11-20T15:09:58.506Z,12.85
2018-11-20T15:12:33.894Z,12.63
2018-11-20T15:15:27.176Z,12.95
2018-11-20T15:18:04.254Z,12.45
2018-11-20T15:20:43.699Z,12.00
2018-11-20T15:23:42.691Z,12.58
2018-11-20T15:26:28.557Z,12.30
2018-11-20T15:29:33.937Z,11.50
2018-11-20T15:32:10.078Z,11.08
2018-11-20T15:35:03.283Z,10.50
2018-11-20T15:37:51.121Z,10.08
2018-11-20T15:40:36.659Z,12.43
2018-11-20T15:43:41.723Z,9.70
2018-11-20T15:46:27.300Z,10.00
2018-11-20T15:49:12.821Z,9.00
2018-11-20T15:51:58.597Z,9.48
2018-11-20T15:54:40.056Z,8.73
2018-11-20T15:57:45.462Z,9.95
2018-11-20T16:00:28.325Z,9.35
2018-11-20T16:03:23.106Z,8.63
2018-11-20T16:06:15.093Z,8.78
2018-11-20T16:09:00.787Z,9.55
2018-11-20T16:11:41.228Z,9.28
2018-11-20T16:14:21.048Z,9.65
2018-11-20T16:17:17.142Z,8.80
2018-11-20T16:19:43.823Z,8.65
2018-11-20T16:22:29.410Z,8.43
2018-11-20T16:25:19.419Z,8.00
2018-11-20T16:28:06.839Z,8.40
2018-11-20T16:30:52.747Z,8.60
2018-11-20T16:33:43.313Z,8.98
2018-11-20T16:36:29.353Z,8.08
2018-11-20T16:39:34.829Z,8.08
2018-11-20T16:42:27.783Z,9.25
2018-11-20T16:45:07.419Z,8.43
2018-11-20T16:47:44.181Z,9.35
2018-11-20T16:50:31.537Z,9.03
2018-11-20T16:53:27.784Z,9.55
2018-11-20T16:56:15.103Z,8.98
2018-11-20T16:59:11.187Z,9.25
2018-11-20T17:01:51.517Z,8.53
2018-11-20T17:04:37.358Z,8.40
2018-11-20T17:07:33.903Z,7.70
2018-11-20T17:10:17.651Z,9.00
2018-11-20T17:13:00.857Z,8.35
2018-11-20T17:15:53.722Z,8.40
2018-11-20T17:18:39.483Z,8.65
2018-11-20T17:21:24.195Z,8.63
2018-11-20T17:24:09.857Z,10.00
2018-11-20T17:26:55.530Z,8.13
2018-11-20T17:29:34.763Z,8.98
2018-11-20T17:32:20.299Z,7.75
2018-11-20T17:35:05.998Z,8.90
2018-11-20T17:37:43.880Z,8.70
2018-11-20T17:40:33.330Z,8.85
2018-11-20T17:43:18.598Z,8.08
2018-11-20T17:45:59.155Z,8.30
2018-11-20T17:48:58.309Z,8.33
2018-11-20T17:51:49.651Z,8.15
2018-11-20T17:54:39.907Z,7.72
2018-11-20T17:57:26.492Z,8.45
2018-11-20T18:00:22.308Z,8.78
2018-11-20T18:03:18.563Z,9.18
2018-11-20T18:06:15.601Z,8.10
2018-11-20T18:09:02.061Z,9.33
2018-11-20T18:11:48.985Z,9.28
2018-11-20T18:14:34.675Z,8.33
2018-11-20T18:17:20.753Z,9.00
2018-11-20T18:19:57.782Z,8.45
2018-11-20T18:22:39.841Z,8.68
2018-11-20T18:25:21.536Z,9.15
2018-11-20T18:27:59.182Z,10.63
2018-11-20T18:30:35.547Z,12.80
2018-11-20T18:33:29.957Z,10.15
2018-11-20T18:36:22.879Z,8.45
2018-11-20T18:39:16.946Z,8.98
2018-11-20T18:42:04.317Z,8.63
2018-11-20T18:44:47.529Z,10.05
2018-11-20T18:47:44.050Z,10.30
2018-11-20T18:50:23.291Z,10.93
2018-11-20T18:53:09.099Z,10.28
2018-11-20T18:55:54.097Z,12.05
2018-11-20T18:58:41.453Z,9.93
2018-11-20T19:01:30.067Z,11.08
2018-11-20T19:04:32.257Z,10.20
2018-11-20T19:07:14.551Z,9.73
2018-11-20T19:10:05.275Z,10.00
2018-11-20T19:13:07.661Z,9.23
2018-11-20T19:15:53.223Z,9.40
2018-11-20T19:18:28.853Z,10.45
2018-11-20T19:21:08.155Z,10.40
2018-11-20T19:24:13.346Z,10.32
2018-11-20T19:26:59.142Z,9.83
2018-11-20T19:29:34.877Z,10.68
2018-11-20T19:32:13.397Z,10.78
2018-11-20T19:34:56.052Z,10.15
2018-11-20T19:37:49.378Z,10.63
2018-11-20T19:40:39.864Z,10.03
2018-11-20T19:43:25.511Z,10.18
2018-11-20T19:46:14.130Z,10.60
2018-11-20T19:49:16.194Z,11.05
2018-11-20T19:52:05.108Z,10.82
2018-11-20T19:54:55.093Z,10.70
2018-11-20T19:57:41.135Z,11.40
2018-11-20T20:00:30.363Z,11.70
2018-11-20T20:03:15.930Z,11.60
2018-11-20T20:05:57.667Z,11.33
2018-11-20T20:08:44.977Z,11.95
2018-11-20T20:11:32.356Z,11.00
2018-11-20T20:14:09.708Z,12.10
2018-11-20T20:17:05.865Z,11.70
2018-11-20T20:19:47.942Z,10.93
2018-11-20T20:22:47.284Z,10.13
2018-11-20T20:25:34.650Z,10.85
2018-11-20T20:28:20.609Z,11.53
2018-11-20T20:31:06.297Z,11.55
2018-11-20T20:33:54.159Z,12.65
2018-11-20T20:36:44.309Z,11.75
2018-11-20T20:39:29.980Z,12.20
2018-11-20T20:42:19.982Z,11.65
2018-11-20T20:45:05.668Z,12.13
2018-11-20T20:47:43.200Z,12.35
2018-11-20T20:50:22.506Z,10.45
2018-11-20T20:53:09.606Z,12.93
2018-11-20T20:55:55.415Z,11.12
2018-11-20T20:58:32.519Z,12.90
2018-11-20T21:01:25.253Z,10.65
2018-11-20T21:04:03.055Z,12.37
2018-11-20T21:06:53.023Z,13.32
2018-11-20T21:09:35.531Z,13.00
2018-11-20T21:12:21.093Z,11.80
2018-11-20T21:15:06.731Z,12.65
2018-11-20T21:17:45.362Z,15.30
2018-11-20T21:20:30.957Z,12.40
2018-11-20T21:23:18.530Z,12.53
2018-11-20T21:26:08.537Z,12.20
2018-11-20T21:28:54.283Z,12.47
2018-11-20T21:31:40.050Z,12.63
2018-11-20T21:34:27.841Z,14.40
2018-11-20T21:37:15.300Z,12.78
2018-11-20T21:40:05.627Z,13.78
2018-11-20T21:43:04.297Z,13.08
2018-11-20T21:45:46.243Z,15.30
2018-11-20T21:48:21.278Z,13.32
2018-11-20T21:51:25.962Z,13.03
2018-11-20T21:54:28.283Z,12.95
2018-11-20T21:57:13.122Z,12.90
2018-11-20T22:00:10.192Z,14.05
2018-11-20T22:03:04.734Z,14.53
2018-11-20T22:05:54.980Z,14.65
2018-11-20T22:08:40.772Z,13.25
2018-11-20T22:11:26.822Z,14.03
2018-11-20T22:14:11.009Z,13.62
2018-11-20T22:17:04.212Z,13.78
2018-11-20T22:19:49.793Z,14.73
2018-11-20T22:22:35.382Z,14.30
2018-11-20T22:25:21.020Z,15.20
2018-11-20T22:28:14.362Z,14.45
2018-11-20T22:31:00.302Z,16.60
2018-11-20T22:33:47.689Z,13.30
2018-11-20T22:36:37.965Z,12.82
2018-11-20T22:39:27.683Z,14.10
2018-11-20T22:42:12.583Z,15.08
2018-11-20T22:44:55.173Z,15.80
2018-11-20T22:47:51.369Z,14.50
2018-11-20T22:50:28.734Z,13.93
2018-11-20T22:53:24.891Z,14.85
2018-11-20T22:56:10.266Z,15.45
2018-11-20T22:58:55.022Z,16.10
2018-11-20T23:01:40.603Z,14.23
2018-11-20T23:04:35.968Z,15.65
2018-11-20T23:07:23.400Z,13.70
2018-11-20T23:09:51.528Z,15.50
2018-11-20T23:12:19.937Z,15.83
2018-11-20T23:14:48.112Z,16.27
2018-11-20T23:17:16.224Z,14.10
2018-11-20T23:19:44.548Z,15.05
2018-11-20T23:22:12.639Z,14.75
2018-11-20T23:24:40.754Z,16.00
2018-11-20T23:27:09.786Z,14.58
2018-11-20T23:29:36.954Z,14.05
2018-11-20T23:32:05.246Z,15.15
2018-11-20T23:34:33.376Z,15.00
2018-11-20T23:37:01.524Z,13.65
2018-11-20T23:39:29.686Z,15.00
2018-11-20T23:41:57.788Z,15.45
2018-11-20T23:44:25.934Z,13.93
2018-11-20T23:46:54.026Z,14.93
2018-11-20T23:49:22.126Z,15.65
2018-11-20T23:51:50.398Z,15.53
2018-11-20T23:54:18.547Z,13.40
2018-11-20T23:56:46.654Z,14.20
2018-11-20T23:59:14.802Z,14.33
